Time;durP1;ratioP1;P1;durP2;ratioP2;P2;SDS_P1;SDS_P2;PMS_P1;PMS_P2;Temp;Humidity;BMP_temperature;BMP_pressure;BME280_temperature;BME280_humidity;BME280_pressure;Samples;Min_cycle;Max_cycle;Signal;HPM_P1;HPM_P2
2022/12/01 00:01:04;;;;;;;17.67;10.43;;;7.50;99.90;;;;;;7391270;19;20157;-79
2022/12/01 00:03:31;;;;;;;19.80;10.60;;;7.60;99.90;;;;;;7391701;19;20135;-80
2022/12/01 00:06:02;;;;;;;19.93;10.37;;;7.70;99.90;;;;;;7390987;19;20206;-80
2022/12/01 00:08:28;;;;;;;20.73;11.57;;;7.80;99.90;;;;;;7392200;19;20135;-80
2022/12/01 00:10:54;;;;;;;20.23;11.17;;;7.80;99.90;;;;;;7392385;19;20468;-79
2022/12/01 00:13:20;;;;;;;18.73;11.30;;;7.70;99.90;;;;;;7393002;19;20150;-80
2022/12/01 00:15:46;;;;;;;20.07;11.07;;;7.60;99.90;;;;;;7391952;19;20507;-80
2022/12/01 00:18:11;;;;;;;20.10;10.93;;;7.70;99.90;;;;;;7391755;19;20142;-81
2022/12/01 00:20:39;;;;;;;20.90;11.57;;;7.70;99.90;;;;;;7391892;19;20156;-79
2022/12/01 00:23:05;;;;;;;20.37;11.27;;;7.70;99.90;;;;;;7390698;19;20495;-80
2022/12/01 00:25:31;;;;;;;21.33;11.33;;;7.80;99.90;;;;;;7391436;19;20146;-80
2022/12/01 00:27:57;;;;;;;17.90;10.57;;;7.70;99.90;;;;;;7389903;19;20162;-81
2022/12/01 00:30:23;;;;;;;19.30;11.33;;;7.60;99.90;;;;;;7389279;19;20150;-80
2022/12/01 00:32:49;;;;;;;18.17;10.27;;;7.60;99.90;;;;;;7392515;19;20143;-79
2022/12/01 00:35:16;;;;;;;19.10;11.23;;;7.60;99.90;;;;;;7389841;19;20154;-80
2022/12/01 00:37:42;;;;;;;20.13;10.63;;;7.60;99.90;;;;;;7392300;19;20145;-78
2022/12/01 00:40:09;;;;;;;19.93;11.23;;;7.70;99.90;;;;;;7391718;19;20146;-79
2022/12/01 00:42:35;;;;;;;17.93;10.53;;;7.80;99.90;;;;;;7390337;19;20166;-79
2022/12/01 00:45:01;;;;;;;20.30;11.63;;;7.70;99.90;;;;;;7393750;19;20138;-79
2022/12/01 00:47:26;;;;;;;17.67;10.70;;;7.70;99.90;;;;;;7396065;19;21522;-80
2022/12/01 00:49:52;;;;;;;20.50;10.87;;;7.70;99.90;;;;;;7397419;19;20150;-78
2022/12/01 00:52:18;;;;;;;18.50;10.53;;;7.80;99.90;;;;;;7398234;19;20151;-78
2022/12/01 00:54:45;;;;;;;22.63;12.13;;;7.60;99.90;;;;;;7396047;19;20191;-80
2022/12/01 00:57:10;;;;;;;18.33;10.73;;;7.60;99.90;;;;;;7399599;19;20163;-79
2022/12/01 00:59:36;;;;;;;17.87;10.33;;;7.20;99.90;;;;;;7397107;19;20139;-78
2022/12/01 01:02:04;;;;;;;18.57;10.67;;;7.30;99.90;;;;;;7400497;19;20147;-80
2022/12/01 01:04:31;;;;;;;19.03;10.63;;;7.50;99.90;;;;;;7397868;19;20512;-79
2022/12/01 01:06:57;;;;;;;15.77;9.23;;;7.50;99.90;;;;;;7392401;19;20159;-78
2022/12/01 01:09:24;;;;;;;16.47;10.63;;;7.40;99.90;;;;;;7399492;19;20640;-79
2022/12/01 01:11:51;;;;;;;19.77;10.37;;;7.40;99.90;;;;;;7397256;19;20155;-79
2022/12/01 01:14:17;;;;;;;16.13;9.90;;;7.40;99.90;;;;;;7397049;19;20142;-79
2022/12/01 01:16:43;;;;;;;19.77;11.13;;;7.50;99.90;;;;;;7396961;19;20218;-78
2022/12/01 01:19:09;;;;;;;18.60;10.77;;;7.70;99.90;;;;;;7398175;19;20584;-79
2022/12/01 01:21:34;;;;;;;21.43;12.20;;;7.70;99.90;;;;;;7398978;19;20146;-79
2022/12/01 01:24:00;;;;;;;17.37;11.37;;;7.60;99.90;;;;;;7397074;19;20145;-81
2022/12/01 01:26:30;;;;;;;20.07;11.70;;;7.50;99.90;;;;;;7395171;19;20492;-80
2022/12/01 01:28:59;;;;;;;19.93;11.53;;;7.60;99.90;;;;;;7395652;19;20173;-78
2022/12/01 01:31:27;;;;;;;20.10;11.03;;;7.60;99.90;;;;;;7396887;19;20161;-79
2022/12/01 01:33:55;;;;;;;18.00;10.57;;;7.60;99.90;;;;;;7396135;19;20150;-78
2022/12/01 01:36:21;;;;;;;18.50;10.87;;;7.60;99.90;;;;;;7396146;19;20142;-80
2022/12/01 01:38:47;;;;;;;18.67;10.13;;;7.40;99.90;;;;;;7396397;19;20626;-79
2022/12/01 01:41:13;;;;;;;19.80;10.77;;;7.70;99.90;;;;;;7397323;19;20135;-79
2022/12/01 01:43:48;;;;;;;20.87;10.73;;;7.40;99.90;;;;;;7394785;19;20165;-79
2022/12/01 01:46:20;;;;;;;15.87;10.27;;;7.40;99.90;;;;;;7394463;19;20504;-79
2022/12/01 01:48:52;;;;;;;17.80;9.77;;;7.40;99.90;;;;;;7395991;19;20479;-79
2022/12/01 01:51:25;;;;;;;18.80;11.27;;;7.40;99.90;;;;;;7395418;19;20146;-78
2022/12/01 01:53:55;;;;;;;17.33;10.50;;;7.50;99.90;;;;;;7395904;19;20147;-80
2022/12/01 01:56:22;;;;;;;21.57;11.20;;;7.50;99.90;;;;;;7389016;19;20174;-80
2022/12/01 01:58:49;;;;;;;17.60;10.07;;;7.50;99.90;;;;;;7395341;19;20135;-79
2022/12/01 02:01:14;;;;;;;19.50;10.93;;;7.50;99.90;;;;;;7395024;19;20284;-87
2022/12/01 02:03:41;;;;;;;20.10;10.77;;;7.60;99.90;;;;;;7398940;19;20171;-87
2022/12/01 02:06:08;;;;;;;19.53;10.73;;;7.70;99.90;;;;;;7398397;19;20175;-88
2022/12/01 02:08:35;;;;;;;17.33;10.30;;;7.60;99.90;;;;;;7397203;19;20643;-87
2022/12/01 02:11:31;;;;;;;18.30;10.97;;;7.50;99.90;;;;;;7401420;19;20147;-87
2022/12/01 02:14:19;;;;;;;18.90;10.57;;;7.60;99.90;;;;;;7398834;19;20134;-86
2022/12/01 02:16:58;;;;;;;17.47;10.50;;;7.60;99.90;;;;;;7399121;19;20366;-88
2022/12/01 02:19:39;;;;;;;17.83;10.33;;;7.60;99.90;;;;;;7398339;19;20147;-86
2022/12/01 02:22:17;;;;;;;16.87;10.47;;;7.60;99.90;;;;;;7400322;19;20166;-88
2022/12/01 02:24:49;;;;;;;16.43;9.90;;;7.50;99.90;;;;;;7401078;19;20138;-85
2022/12/01 02:27:56;;;;;;;17.03;9.77;;;7.50;99.90;;;;;;7395506;19;20135;-85
2022/12/01 02:30:46;;;;;;;19.57;11.23;;;7.50;99.90;;;;;;7396625;19;20711;-89
2022/12/01 02:33:15;;;;;;;20.37;10.17;;;7.50;99.90;;;;;;7399219;19;20607;-89
2022/12/01 02:36:02;;;;;;;17.20;9.27;;;7.50;99.90;;;;;;7408981;19;20145;-86
2022/12/01 02:38:51;;;;;;;16.97;9.83;;;7.50;99.90;;;;;;7411057;19;20155;-90
2022/12/01 02:41:28;;;;;;;19.60;10.40;;;7.50;99.90;;;;;;7407634;19;20146;-87
2022/12/01 02:44:24;;;;;;;20.00;10.57;;;7.40;99.90;;;;;;7404440;19;20613;-90
2022/12/01 02:47:04;;;;;;;17.17;9.90;;;7.20;99.90;;;;;;7399182;19;20146;-89
2022/12/01 02:49:35;;;;;;;18.40;9.93;;;7.30;99.90;;;;;;7402189;19;20592;-86
2022/12/01 02:52:05;;;;;;;15.10;9.23;;;7.20;99.90;;;;;;7398261;19;20161;-87
2022/12/01 02:54:31;;;;;;;16.10;9.63;;;7.20;99.90;;;;;;7395194;19;20178;-87
2022/12/01 02:56:58;;;;;;;16.70;9.40;;;7.20;99.90;;;;;;7396356;19;20160;-89
2022/12/01 02:59:24;;;;;;;17.87;9.67;;;7.30;99.90;;;;;;7399271;19;20210;-85
2022/12/01 03:02:08;;;;;;;16.97;9.70;;;7.20;99.90;;;;;;7397028;19;20143;-89
2022/12/01 03:04:42;;;;;;;15.70;9.50;;;7.20;99.90;;;;;;7399471;19;20138;-89
2022/12/01 03:07:20;;;;;;;19.73;11.10;;;7.10;99.90;;;;;;7398395;19;20604;-90
2022/12/01 03:10:05;;;;;;;16.23;9.87;;;7.10;99.90;;;;;;7407615;19;20139;-89
2022/12/01 03:12:50;;;;;;;17.57;10.30;;;7.10;99.90;;;;;;7410008;19;20172;-88
2022/12/01 03:15:38;;;;;;;17.40;10.13;;;7.20;99.90;;;;;;7412971;19;20164;-87
2022/12/01 03:18:26;;;;;;;17.93;11.23;;;7.20;99.90;;;;;;7414098;19;20126;-85
2022/12/01 03:21:22;;;;;;;15.80;9.33;;;7.30;99.90;;;;;;7408320;19;20143;-89
2022/12/01 03:23:53;;;;;;;18.37;10.30;;;7.20;99.90;;;;;;7398722;19;20141;-88
2022/12/01 03:26:21;;;;;;;17.70;9.93;;;7.00;99.90;;;;;;7396911;19;20182;-89
2022/12/01 03:28:57;;;;;;;19.43;10.73;;;6.60;99.90;;;;;;7396872;19;20144;-89
2022/12/01 03:31:29;;;;;;;18.90;10.60;;;6.90;99.90;;;;;;7401211;19;20138;-89
2022/12/01 03:33:59;;;;;;;18.43;11.07;;;7.00;99.90;;;;;;7396381;19;20161;-87
2022/12/01 03:36:48;;;;;;;15.90;9.47;;;7.00;99.90;;;;;;7396863;19;20185;-89
2022/12/01 03:39:19;;;;;;;17.27;10.07;;;7.00;99.90;;;;;;7397675;19;20143;-89
2022/12/01 03:41:55;;;;;;;16.70;9.87;;;7.00;99.90;;;;;;7399173;19;20163;-89
2022/12/01 03:44:26;;;;;;;17.53;9.57;;;7.10;99.90;;;;;;7393439;19;20278;-88
2022/12/01 03:47:15;;;;;;;17.57;9.00;;;6.90;99.90;;;;;;7398214;19;20134;-84
2022/12/01 03:49:42;;;;;;;18.53;10.43;;;6.80;99.90;;;;;;7396012;19;20162;-89
2022/12/01 03:52:27;;;;;;;15.30;9.53;;;6.80;99.90;;;;;;7396311;19;20226;-87
2022/12/01 03:55:16;;;;;;;15.90;9.83;;;7.00;99.90;;;;;;7394554;19;20174;-89
2022/12/01 03:57:52;;;;;;;17.60;10.73;;;6.90;99.90;;;;;;7398493;19;20146;-88
2022/12/01 04:00:19;;;;;;;15.27;9.30;;;7.00;99.90;;;;;;7396765;19;20135;-88
2022/12/01 04:02:45;;;;;;;18.13;10.13;;;7.00;99.90;;;;;;7397171;19;20492;-89
2022/12/01 04:05:12;;;;;;;17.27;10.33;;;7.20;99.90;;;;;;7391757;19;20218;-86
2022/12/01 04:07:39;;;;;;;17.67;10.50;;;7.20;99.90;;;;;;7393324;19;20555;-88
2022/12/01 04:10:05;;;;;;;15.73;9.47;;;7.20;99.90;;;;;;7393632;19;20138;-88
2022/12/01 04:12:32;;;;;;;19.43;10.63;;;7.10;99.90;;;;;;7395733;19;20217;-87
2022/12/01 04:15:08;;;;;;;16.73;9.87;;;7.20;99.90;;;;;;7393434;19;20962;-87
2022/12/01 04:17:35;;;;;;;17.47;9.90;;;7.10;99.90;;;;;;7393561;19;20170;-87
2022/12/01 04:20:02;;;;;;;17.67;9.77;;;6.80;99.90;;;;;;7397683;19;20172;-88
2022/12/01 04:22:28;;;;;;;17.83;10.17;;;6.90;99.90;;;;;;7400889;19;20162;-88
2022/12/01 04:24:54;;;;;;;18.60;10.80;;;7.00;99.90;;;;;;7401439;19;20142;-88
2022/12/01 04:27:20;;;;;;;18.90;10.67;;;7.00;99.90;;;;;;7400033;19;20168;-87
2022/12/01 04:29:46;;;;;;;17.63;10.43;;;6.70;99.90;;;;;;7403888;19;20142;-89
2022/12/01 04:32:12;;;;;;;17.33;10.57;;;6.80;99.90;;;;;;7403255;19;20143;-87
2022/12/01 04:34:38;;;;;;;21.00;10.90;;;7.00;99.90;;;;;;7402126;19;20138;-88
2022/12/01 04:37:04;;;;;;;18.57;10.73;;;6.90;99.90;;;;;;7401963;19;20654;-88
2022/12/01 04:39:30;;;;;;;17.97;10.40;;;7.00;99.90;;;;;;7404840;19;20210;-87
2022/12/01 04:41:56;;;;;;;17.57;10.80;;;6.90;99.90;;;;;;7402153;19;20150;-89
2022/12/01 04:44:22;;;;;;;19.90;10.50;;;7.10;99.90;;;;;;7402627;19;20165;-89
2022/12/01 04:46:51;;;;;;;15.57;9.50;;;7.10;99.90;;;;;;7401554;19;20147;-87
2022/12/01 04:49:20;;;;;;;16.03;10.20;;;7.10;99.90;;;;;;7415825;19;20158;-88
2022/12/01 04:51:47;;;;;;;17.13;10.10;;;6.80;99.90;;;;;;7425087;19;20146;-86
2022/12/01 04:54:13;;;;;;;17.93;11.07;;;7.00;99.90;;;;;;7420897;19;20143;-90
2022/12/01 04:56:40;;;;;;;18.90;10.33;;;7.10;99.90;;;;;;7404477;19;20127;-88
2022/12/01 04:59:07;;;;;;;19.97;10.37;;;7.20;99.90;;;;;;7403041;19;20618;-89
2022/12/01 05:01:33;;;;;;;18.93;11.10;;;7.50;99.90;;;;;;7401206;19;20158;-91
2022/12/01 05:03:58;;;;;;;18.63;10.90;;;7.30;99.90;;;;;;7402606;19;20139;-89
2022/12/01 05:06:27;;;;;;;17.90;10.40;;;6.50;99.90;;;;;;7400259;19;20154;-89
2022/12/01 05:09:00;;;;;;;19.53;11.40;;;6.70;99.90;;;;;;7401942;19;20158;-90
2022/12/01 05:11:30;;;;;;;18.73;10.63;;;6.90;99.90;;;;;;7401062;19;20161;-86
2022/12/01 05:13:56;;;;;;;16.90;10.57;;;7.00;99.90;;;;;;7400782;19;20146;-86
2022/12/01 05:16:28;;;;;;;16.80;10.63;;;7.00;99.90;;;;;;7400627;19;20135;-84
2022/12/01 05:21:45;;;;;;;18.83;10.23;;;7.00;99.90;;;;;;7401130;19;20151;-88
2022/12/01 05:24:12;;;;;;;19.03;10.70;;;6.90;99.90;;;;;;7400207;19;20154;-90
2022/12/01 05:26:38;;;;;;;15.93;9.93;;;7.00;99.90;;;;;;7399263;19;20143;-89
2022/12/01 05:29:04;;;;;;;20.57;11.27;;;6.90;99.90;;;;;;7402331;19;20154;-87
2022/12/01 05:31:30;;;;;;;17.23;10.93;;;7.10;99.90;;;;;;7403262;19;20495;-87
2022/12/01 05:33:56;;;;;;;21.20;11.67;;;7.10;99.90;;;;;;7404140;19;20158;-87
2022/12/01 05:36:22;;;;;;;18.33;10.07;;;7.10;99.90;;;;;;7401072;19;20158;-89
2022/12/01 05:38:48;;;;;;;20.10;10.63;;;7.10;99.90;;;;;;7399907;19;20537;-89
2022/12/01 05:41:14;;;;;;;17.73;10.87;;;7.10;99.90;;;;;;7401339;19;20515;-86
2022/12/01 05:43:39;;;;;;;19.43;11.03;;;7.10;99.90;;;;;;7397138;19;20154;-89
2022/12/01 05:46:05;;;;;;;18.43;11.30;;;7.00;99.90;;;;;;7400501;19;20178;-86
2022/12/01 05:48:31;;;;;;;20.73;11.50;;;6.90;99.90;;;;;;7401125;19;20146;-88
2022/12/01 05:50:57;;;;;;;19.90;11.67;;;6.90;99.90;;;;;;7401611;19;20145;-89
2022/12/01 05:53:22;;;;;;;19.50;11.57;;;6.80;99.90;;;;;;7400772;19;20166;-88
2022/12/01 05:55:53;;;;;;;19.60;11.37;;;6.90;99.90;;;;;;7396760;19;20225;-88
2022/12/01 05:58:19;;;;;;;18.50;11.57;;;6.90;99.90;;;;;;7398365;19;20142;-87
2022/12/01 06:00:45;;;;;;;18.60;11.10;;;6.90;99.90;;;;;;7400439;19;20142;-88
2022/12/01 06:03:10;;;;;;;19.40;11.03;;;6.90;99.90;;;;;;7398625;19;20152;-87
2022/12/01 06:05:36;;;;;;;21.13;13.10;;;6.90;99.90;;;;;;7398495;19;20145;-87
2022/12/01 06:08:02;;;;;;;18.13;10.43;;;6.90;99.90;;;;;;7396813;19;20158;-87
2022/12/01 06:10:28;;;;;;;17.87;10.97;;;7.00;99.90;;;;;;7399235;19;20135;-90
2022/12/01 06:12:53;;;;;;;24.73;13.20;;;7.00;99.90;;;;;;7396928;19;20465;-89
2022/12/01 06:15:19;;;;;;;20.43;11.40;;;7.00;99.90;;;;;;7397292;19;20507;-89
2022/12/01 06:17:45;;;;;;;20.30;12.07;;;7.00;99.90;;;;;;7398326;19;20159;-90
2022/12/01 06:20:11;;;;;;;19.70;11.57;;;7.00;99.90;;;;;;7398800;19;20139;-89
2022/12/01 06:22:37;;;;;;;19.93;12.10;;;7.10;99.90;;;;;;7399694;19;20162;-89
2022/12/01 06:25:03;;;;;;;20.73;13.17;;;6.80;99.90;;;;;;7399458;19;20135;-89
2022/12/01 06:27:29;;;;;;;19.93;12.27;;;6.80;99.90;;;;;;7396565;19;20138;-88
2022/12/01 06:29:55;;;;;;;21.63;12.00;;;6.40;99.90;;;;;;7403057;19;20728;-85
2022/12/01 06:32:20;;;;;;;21.40;12.03;;;6.70;99.90;;;;;;7403870;19;20150;-89
2022/12/01 06:34:46;;;;;;;22.87;12.80;;;6.90;99.90;;;;;;7400759;19;20516;-88
2022/12/01 06:37:14;;;;;;;21.23;11.90;;;6.80;99.90;;;;;;7395469;19;20175;-88
2022/12/01 06:39:40;;;;;;;21.90;12.67;;;7.00;99.90;;;;;;7395754;19;20627;-89
2022/12/01 06:42:06;;;;;;;22.17;12.07;;;7.00;99.90;;;;;;7396470;19;20138;-87
2022/12/01 06:44:32;;;;;;;18.90;11.40;;;7.00;99.90;;;;;;7393607;19;20167;-87
2022/12/01 06:46:57;;;;;;;20.33;12.03;;;7.00;99.90;;;;;;7393370;19;20150;-88
2022/12/01 06:49:23;;;;;;;19.17;11.87;;;7.00;99.90;;;;;;7397282;19;20142;-88
2022/12/01 06:51:49;;;;;;;18.83;11.70;;;7.00;99.90;;;;;;7399947;19;20127;-87
2022/12/01 06:54:16;;;;;;;19.97;12.13;;;7.00;99.90;;;;;;7402321;19;20142;-88
2022/12/01 06:56:44;;;;;;;17.33;11.27;;;6.90;99.90;;;;;;7398289;19;20198;-85
2022/12/01 06:59:10;;;;;;;19.17;11.20;;;7.00;99.90;;;;;;7399750;19;20138;-89
2022/12/01 07:01:36;;;;;;;22.63;12.17;;;6.90;99.90;;;;;;7404713;19;20155;-89
2022/12/01 07:04:02;;;;;;;21.43;12.00;;;7.00;99.90;;;;;;7409315;19;20585;-84
2022/12/01 07:06:29;;;;;;;20.57;12.47;;;6.90;99.90;;;;;;7401831;19;20126;-88
2022/12/01 07:08:54;;;;;;;22.10;11.80;;;7.00;99.90;;;;;;7399363;19;20846;-89
2022/12/01 07:11:20;;;;;;;18.33;11.87;;;6.20;99.90;;;;;;7399356;19;20138;-89
2022/12/01 07:13:48;;;;;;;20.90;11.30;;;6.70;99.90;;;;;;7398161;19;20130;-93
2022/12/01 07:16:16;;;;;;;22.13;12.10;;;6.70;99.90;;;;;;7397444;19;20146;-90
2022/12/01 07:18:43;;;;;;;20.00;11.50;;;6.90;99.90;;;;;;7398479;19;20142;-93
2022/12/01 07:21:11;;;;;;;21.67;11.23;;;6.90;99.90;;;;;;7398077;19;20153;-89
2022/12/01 07:23:38;;;;;;;23.20;12.57;;;6.80;99.90;;;;;;7396931;19;20127;-89
2022/12/01 07:26:11;;;;;;;21.07;11.57;;;6.80;99.90;;;;;;7396426;19;20142;-94
2022/12/01 07:28:37;;;;;;;19.37;10.97;;;6.90;99.90;;;;;;7401287;19;20209;-89
2022/12/01 07:31:05;;;;;;;21.33;12.73;;;6.90;99.90;;;;;;7400028;19;20139;-90
2022/12/01 07:33:31;;;;;;;20.50;11.60;;;6.80;99.90;;;;;;7399403;19;20165;-92
2022/12/01 07:35:58;;;;;;;22.67;12.23;;;6.80;99.90;;;;;;7396437;19;20262;-90
2022/12/01 07:38:24;;;;;;;20.23;10.90;;;6.80;99.90;;;;;;7394866;19;20148;-91
2022/12/01 07:40:49;;;;;;;20.20;12.23;;;6.80;99.90;;;;;;7399396;19;20139;-90
2022/12/01 07:43:15;;;;;;;21.27;11.87;;;6.80;99.90;;;;;;7401860;19;20158;-91
2022/12/01 07:45:41;;;;;;;19.63;11.53;;;6.80;99.90;;;;;;7396283;19;20511;-89
2022/12/01 07:48:08;;;;;;;17.90;11.73;;;6.70;99.90;;;;;;7395295;19;20158;-90
2022/12/01 07:50:34;;;;;;;19.97;11.70;;;6.80;99.90;;;;;;7394732;19;20138;-90
2022/12/01 07:53:00;;;;;;;19.30;12.10;;;6.80;99.90;;;;;;7395818;19;20135;-89
2022/12/01 07:55:25;;;;;;;20.43;12.30;;;6.80;99.90;;;;;;7398126;19;20151;-88
2022/12/01 07:57:52;;;;;;;19.97;11.77;;;6.90;99.90;;;;;;7399779;19;20161;-90
2022/12/01 08:00:18;;;;;;;20.80;11.53;;;6.90;99.90;;;;;;7407430;19;20497;-89
2022/12/01 08:02:46;;;;;;;19.67;11.43;;;7.00;99.90;;;;;;7405089;19;20249;-91
2022/12/01 08:05:12;;;;;;;18.93;10.83;;;7.10;99.90;;;;;;7402511;19;20226;-90
2022/12/01 08:07:38;;;;;;;22.30;11.37;;;7.00;99.90;;;;;;7402501;19;20159;-91
2022/12/01 08:10:04;;;;;;;19.90;11.37;;;7.00;99.90;;;;;;7402976;19;20139;-89
2022/12/01 08:12:30;;;;;;;20.17;11.70;;;7.00;99.90;;;;;;7404035;19;20259;-88
2022/12/01 08:14:55;;;;;;;22.47;12.50;;;7.10;99.90;;;;;;7403695;19;20230;-88
2022/12/01 08:17:21;;;;;;;20.53;12.83;;;6.90;99.90;;;;;;7405120;19;20169;-87
2022/12/01 08:19:47;;;;;;;22.10;11.83;;;7.10;99.90;;;;;;7415330;19;20141;-91
2022/12/01 08:22:14;;;;;;;20.40;10.43;;;7.20;99.90;;;;;;7429412;19;20130;-90
2022/12/01 08:24:40;;;;;;;24.23;12.07;;;7.10;99.90;;;;;;7428832;19;20162;-87
2022/12/01 08:27:05;;;;;;;20.47;11.37;;;7.00;99.90;;;;;;7429720;19;20260;-85
2022/12/01 08:29:31;;;;;;;16.07;10.43;;;7.00;99.90;;;;;;7429163;19;20165;-87
2022/12/01 08:31:57;;;;;;;19.10;11.20;;;7.00;99.90;;;;;;7428230;19;20138;-86
2022/12/01 08:34:23;;;;;;;19.80;10.63;;;7.10;99.90;;;;;;7419339;19;20122;-91
2022/12/01 08:36:49;;;;;;;19.17;11.53;;;7.20;99.90;;;;;;7403284;19;20202;-86
2022/12/01 08:39:15;;;;;;;19.40;11.07;;;7.20;99.90;;;;;;7404729;19;20234;-87
2022/12/01 08:41:41;;;;;;;20.20;11.27;;;7.20;99.90;;;;;;7403682;19;20126;-92
2022/12/01 08:44:09;;;;;;;21.37;11.97;;;7.20;99.90;;;;;;7403704;19;20161;-89
2022/12/01 08:46:35;;;;;;;20.87;11.93;;;7.20;99.90;;;;;;7403897;19;20138;-90
2022/12/01 08:49:04;;;;;;;19.37;11.37;;;7.20;99.90;;;;;;7407042;19;20477;-93
2022/12/01 08:51:30;;;;;;;18.10;11.53;;;7.10;99.90;;;;;;7415618;19;20154;-89
2022/12/01 08:53:57;;;;;;;22.60;11.50;;;7.20;99.90;;;;;;7401485;19;20135;-89
2022/12/01 08:56:30;;;;;;;17.97;10.67;;;7.20;99.90;;;;;;7398387;19;20236;-89
2022/12/01 08:58:57;;;;;;;19.53;11.73;;;7.20;99.90;;;;;;7403317;19;20150;-87
2022/12/01 09:01:31;;;;;;;18.43;10.83;;;7.10;99.90;;;;;;7400995;19;20139;-88
2022/12/01 09:04:06;;;;;;;22.57;11.47;;;7.40;99.90;;;;;;7404365;19;20177;-90
2022/12/01 09:06:44;;;;;;;19.17;11.97;;;7.20;99.90;;;;;;7403833;19;20134;-92
2022/12/01 09:09:13;;;;;;;16.67;10.37;;;7.20;99.90;;;;;;7402207;19;20274;-90
2022/12/01 09:11:39;;;;;;;18.43;10.47;;;7.10;99.90;;;;;;7402646;19;20146;-90
2022/12/01 09:14:05;;;;;;;17.67;10.70;;;7.10;99.90;;;;;;7402288;19;20613;-90
2022/12/01 09:16:31;;;;;;;18.47;10.57;;;7.10;99.90;;;;;;7416763;19;20139;-90
2022/12/01 09:18:57;;;;;;;17.07;10.27;;;7.10;99.90;;;;;;7412727;19;20145;-89
2022/12/01 09:21:26;;;;;;;18.77;11.03;;;7.10;99.90;;;;;;7412007;19;20587;-92
2022/12/01 09:23:54;;;;;;;17.23;10.83;;;7.10;99.90;;;;;;7406276;19;20134;-90
2022/12/01 09:26:20;;;;;;;19.40;11.60;;;7.10;99.90;;;;;;7404291;19;20146;-89
2022/12/01 09:28:47;;;;;;;18.53;11.07;;;6.90;99.90;;;;;;7401028;19;20135;-83
2022/12/01 09:31:14;;;;;;;15.50;10.23;;;7.00;99.90;;;;;;7397978;19;20186;-91
2022/12/01 09:33:40;;;;;;;19.13;11.23;;;7.10;99.90;;;;;;7400105;19;20607;-91
2022/12/01 09:36:07;;;;;;;15.53;9.63;;;7.20;99.90;;;;;;7401458;19;20168;-88
2022/12/01 09:38:35;;;;;;;17.67;10.70;;;7.10;99.90;;;;;;7400451;19;20139;-91
2022/12/01 09:41:32;;;;;;;18.33;10.90;;;7.10;99.90;;;;;;7400121;19;20147;-90
2022/12/01 09:44:13;;;;;;;18.47;10.30;;;7.10;99.90;;;;;;7398879;19;20166;-88
2022/12/01 09:47:05;;;;;;;18.70;10.93;;;7.00;99.90;;;;;;7400453;19;20213;-91
2022/12/01 09:49:54;;;;;;;21.40;11.37;;;7.00;99.90;;;;;;7400655;19;20187;-88
2022/12/01 09:52:23;;;;;;;18.37;10.90;;;7.10;99.90;;;;;;7401959;19;20151;-91
2022/12/01 09:54:53;;;;;;;16.30;10.13;;;7.10;99.90;;;;;;7403693;19;20607;-90
2022/12/01 09:57:38;;;;;;;18.03;11.00;;;7.20;99.90;;;;;;7405714;19;20147;-88
2022/12/01 10:00:14;;;;;;;17.47;10.23;;;7.10;99.90;;;;;;7403091;19;20130;-90
2022/12/01 10:02:53;;;;;;;17.90;10.70;;;7.20;99.90;;;;;;7416000;19;20143;-90
2022/12/01 10:05:23;;;;;;;18.70;10.17;;;7.20;99.90;;;;;;7410810;19;20150;-91
2022/12/01 10:08:02;;;;;;;18.63;10.37;;;7.20;99.90;;;;;;7403293;19;20141;-91
2022/12/01 10:10:39;;;;;;;18.77;10.93;;;7.10;99.90;;;;;;7400662;19;20134;-90
2022/12/01 10:13:28;;;;;;;20.10;11.07;;;7.10;99.90;;;;;;7401942;19;20142;-91
2022/12/01 10:15:54;;;;;;;18.70;10.63;;;7.10;99.90;;;;;;7401758;19;20153;-92
2022/12/01 10:18:57;;;;;;;20.53;10.87;;;7.10;99.90;;;;;;7401892;19;20246;-96
2022/12/01 10:22:06;;;;;;;19.30;10.60;;;7.00;99.90;;;;;;7401871;19;20149;-88
2022/12/01 10:24:53;;;;;;;19.30;10.37;;;6.90;99.90;;;;;;7403076;19;20214;-91
2022/12/01 10:27:37;;;;;;;18.93;10.93;;;6.90;99.90;;;;;;7392617;19;20584;-79
2022/12/01 10:30:14;;;;;;;15.87;10.40;;;6.90;99.90;;;;;;7392816;19;20142;-80
2022/12/01 10:32:51;;;;;;;16.73;10.17;;;6.90;99.90;;;;;;7396293;19;20691;-80
2022/12/01 10:35:20;;;;;;;21.87;11.83;;;6.90;99.90;;;;;;7390413;19;20146;-79
2022/12/01 10:37:48;;;;;;;18.40;10.90;;;6.90;99.90;;;;;;7399264;19;20442;-80
2022/12/01 10:40:15;;;;;;;16.50;9.70;;;7.10;99.90;;;;;;7397787;19;20178;-79
2022/12/01 10:42:44;;;;;;;18.53;10.73;;;7.00;99.90;;;;;;7396409;19;20151;-81
2022/12/01 10:45:24;;;;;;;19.37;11.00;;;7.10;99.90;;;;;;7397393;19;20489;-80
2022/12/01 10:48:09;;;;;;;19.50;11.17;;;7.10;99.90;;;;;;7393387;19;20161;-79
2022/12/01 10:50:35;;;;;;;17.80;10.37;;;7.20;99.90;;;;;;7394554;19;20166;-80
2022/12/01 10:53:02;;;;;;;17.90;10.33;;;7.20;99.90;;;;;;7394889;19;20143;-79
2022/12/01 10:55:35;;;;;;;21.07;10.90;;;7.20;99.90;;;;;;7391693;19;20166;-82
2022/12/01 10:58:12;;;;;;;16.97;10.43;;;7.20;99.90;;;;;;7393790;19;20535;-80
2022/12/01 11:00:41;;;;;;;19.13;11.00;;;7.20;99.90;;;;;;7395027;19;20157;-80
2022/12/01 11:03:18;;;;;;;16.47;10.40;;;7.20;99.90;;;;;;7393933;19;20134;-81
2022/12/01 11:05:51;;;;;;;17.67;10.83;;;7.10;99.90;;;;;;7392016;19;20138;-82
2022/12/01 11:08:34;;;;;;;18.43;10.13;;;7.10;99.90;;;;;;7393533;19;20152;-80
2022/12/01 11:11:02;;;;;;;18.33;11.47;;;7.20;99.90;;;;;;7393137;19;20244;-80
2022/12/01 11:13:32;;;;;;;18.67;11.40;;;7.10;99.90;;;;;;7392367;19;20210;-79
2022/12/01 11:16:01;;;;;;;16.87;10.37;;;7.20;99.90;;;;;;7391932;19;20153;-82
2022/12/01 11:18:30;;;;;;;18.93;11.33;;;7.40;99.90;;;;;;7393425;19;20164;-81
2022/12/01 11:21:27;;;;;;;18.23;11.13;;;7.30;99.90;;;;;;7395040;19;20222;-78
2022/12/01 11:23:54;;;;;;;17.67;10.30;;;7.30;99.90;;;;;;7394591;19;20591;-80
2022/12/01 11:26:29;;;;;;;19.20;11.07;;;7.30;99.90;;;;;;7396759;19;20138;-80
2022/12/01 11:28:59;;;;;;;17.90;10.70;;;7.30;99.90;;;;;;7392610;19;20144;-78
2022/12/01 11:31:46;;;;;;;17.57;10.47;;;7.20;99.90;;;;;;7390301;19;20155;-79
2022/12/01 11:34:25;;;;;;;17.27;10.57;;;7.30;99.90;;;;;;7392433;19;20146;-80
2022/12/01 11:37:05;;;;;;;19.27;10.73;;;7.30;99.90;;;;;;7391822;19;20146;-80
2022/12/01 11:39:37;;;;;;;18.33;10.83;;;7.20;99.90;;;;;;7392513;19;20646;-81
2022/12/01 11:42:25;;;;;;;20.83;11.30;;;7.30;99.90;;;;;;7395806;19;20228;-78
2022/12/01 11:45:17;;;;;;;18.40;10.93;;;7.10;99.90;;;;;;7396468;19;20637;-79
2022/12/01 11:48:11;;;;;;;18.37;10.87;;;7.10;99.90;;;;;;7394129;19;20501;-80
2022/12/01 11:50:40;;;;;;;20.23;11.37;;;7.20;99.90;;;;;;7392550;19;20151;-79
2022/12/01 11:53:25;;;;;;;19.30;11.17;;;7.20;99.90;;;;;;7390799;19;20164;-78
2022/12/01 11:55:53;;;;;;;18.20;11.70;;;7.10;99.90;;;;;;7389406;19;20182;-81
2022/12/01 11:58:19;;;;;;;18.83;10.73;;;7.10;99.90;;;;;;7391724;19;20155;-80
2022/12/01 12:00:54;;;;;;;17.40;10.40;;;7.20;99.90;;;;;;7391739;19;20506;-79
2022/12/01 12:03:31;;;;;;;21.40;11.30;;;7.20;99.90;;;;;;7391369;19;20250;-79
2022/12/01 12:06:24;;;;;;;19.87;10.97;;;7.30;99.90;;;;;;7396235;19;20243;-79
2022/12/01 12:09:06;;;;;;;19.43;10.40;;;7.20;99.90;;;;;;7394294;19;20527;-78
2022/12/01 12:12:04;;;;;;;18.10;10.27;;;7.40;99.90;;;;;;7392579;19;20178;-81
2022/12/01 12:15:01;;;;;;;19.37;10.63;;;7.20;99.90;;;;;;7389909;19;20253;-80
2022/12/01 12:17:39;;;;;;;15.27;10.00;;;7.20;99.90;;;;;;7391629;19;20744;-80
2022/12/01 12:20:30;;;;;;;17.20;10.07;;;7.20;99.90;;;;;;7394083;19;20150;-80
2022/12/01 12:23:18;;;;;;;16.90;10.33;;;7.30;99.90;;;;;;7401583;19;20221;-80
2022/12/01 12:26:02;;;;;;;23.07;12.20;;;7.30;99.90;;;;;;7391579;19;20168;-81
2022/12/01 12:29:16;;;;;;;15.83;9.80;;;7.20;99.90;;;;;;7391827;19;20137;-79
2022/12/01 12:31:54;;;;;;;18.87;10.40;;;7.30;99.90;;;;;;7387508;19;20157;-80
2022/12/01 12:34:58;;;;;;;16.13;10.00;;;7.50;99.90;;;;;;7394004;19;20130;-82
2022/12/01 12:37:42;;;;;;;16.93;10.03;;;7.50;99.90;;;;;;7390577;19;20145;-80
2022/12/01 12:40:46;;;;;;;16.73;9.83;;;7.40;99.90;;;;;;7391215;19;20173;-81
2022/12/01 12:43:44;;;;;;;16.93;10.63;;;7.60;99.90;;;;;;7397866;19;20161;-81
2022/12/01 12:46:12;;;;;;;21.30;12.47;;;7.60;99.90;;;;;;7393931;19;20154;-80
2022/12/01 12:49:10;;;;;;;15.97;9.87;;;7.60;99.90;;;;;;7397623;19;20152;-81
2022/12/01 12:51:38;;;;;;;16.90;9.87;;;7.70;99.90;;;;;;7398355;19;20143;-79
2022/12/01 12:54:19;;;;;;;16.10;10.40;;;7.70;99.90;;;;;;7403733;19;20149;-80
2022/12/01 12:56:48;;;;;;;16.20;10.33;;;7.70;99.90;;;;;;7396734;19;20142;-80
2022/12/01 12:59:39;;;;;;;18.70;11.63;;;7.70;99.90;;;;;;7397307;19;20625;-80
2022/12/01 13:02:21;;;;;;;18.30;10.20;;;7.70;99.90;;;;;;7404186;19;20485;-79
2022/12/01 13:04:57;;;;;;;18.83;9.93;;;7.70;99.90;;;;;;7399845;19;20158;-81